Time;durP1;ratioP1;P1;durP2;ratioP2;P2;SDS_P1;SDS_P2;PMS_P1;PMS_P2;Temp;Humidity;BMP_temperature;BMP_pressure;BME280_temperature;BME280_humidity;BME280_pressure;Samples;Min_cycle;Max_cycle;Signal;HPM_P1;HPM_P2
2023/05/01 00:01:52;;;;;;;2.60;2.40;;;24.10;59.50;;;;;;5031179;28;20470;-73
2023/05/01 00:04:22;;;;;;;2.83;2.50;;;24.10;59.50;;;;;;5025079;28;20546;-73
2023/05/01 00:06:50;;;;;;;2.87;2.67;;;24.10;59.50;;;;;;5020265;28;20461;-73
2023/05/01 00:09:20;;;;;;;3.20;2.90;;;24.10;59.50;;;;;;5032280;28;20511;-73
2023/05/01 00:11:48;;;;;;;4.03;2.43;;;24.10;59.50;;;;;;5033363;28;20441;-72
2023/05/01 00:14:16;;;;;;;2.40;2.20;;;24.10;59.50;;;;;;5032319;28;20833;-73
2023/05/01 00:16:45;;;;;;;2.80;2.60;;;24.10;59.50;;;;;;5032601;28;20549;-73
2023/05/01 00:19:17;;;;;;;2.70;2.50;;;24.10;59.50;;;;;;5033283;28;21001;-73
2023/05/01 00:21:46;;;;;;;2.40;2.20;;;24.10;59.50;;;;;;5032219;28;21098;-73
2023/05/01 00:24:15;;;;;;;2.40;2.20;;;24.00;59.50;;;;;;5033580;28;20441;-73
2023/05/01 00:26:45;;;;;;;2.50;2.40;;;24.00;59.50;;;;;;5032727;28;20457;-73
2023/05/01 00:29:14;;;;;;;2.70;2.50;;;24.00;59.50;;;;;;5033001;28;20462;-73
2023/05/01 00:31:42;;;;;;;2.47;2.37;;;24.00;59.50;;;;;;5033036;28;20455;-73
2023/05/01 00:34:10;;;;;;;2.33;2.23;;;24.00;59.50;;;;;;5033237;28;20445;-73
2023/05/01 00:36:38;;;;;;;2.10;2.00;;;24.00;59.50;;;;;;5031836;28;20520;-73
2023/05/01 00:39:07;;;;;;;2.33;2.20;;;24.00;59.50;;;;;;5032999;28;20587;-73
2023/05/01 00:41:35;;;;;;;2.40;2.20;;;24.00;59.50;;;;;;5014372;28;20485;-73
2023/05/01 00:44:05;;;;;;;2.10;2.00;;;24.00;59.60;;;;;;5015122;28;20544;-74
2023/05/01 00:46:35;;;;;;;2.10;2.00;;;24.00;59.70;;;;;;5031778;28;20461;-74
2023/05/01 00:49:04;;;;;;;2.73;2.53;;;24.00;59.60;;;;;;5031988;28;20455;-74
2023/05/01 00:51:32;;;;;;;2.27;2.10;;;24.00;59.70;;;;;;5030352;28;20461;-74
2023/05/01 00:54:01;;;;;;;2.60;2.40;;;24.00;59.60;;;;;;5014888;28;21014;-74
2023/05/01 00:56:30;;;;;;;2.27;2.07;;;24.00;59.70;;;;;;5031957;28;20496;-74
2023/05/01 00:59:00;;;;;;;2.87;2.67;;;24.00;59.70;;;;;;5032984;28;20523;-73
2023/05/01 01:01:29;;;;;;;2.60;2.27;;;24.00;59.70;;;;;;5031892;28;20490;-73
2023/05/01 01:03:57;;;;;;;1.80;1.70;;;24.00;59.70;;;;;;5032403;28;20501;-74
2023/05/01 01:06:34;;;;;;;2.13;2.03;;;24.00;59.70;;;;;;5031699;28;20467;-73
2023/05/01 01:09:13;;;;;;;2.67;2.47;;;24.00;59.70;;;;;;5032521;28;20525;-74
2023/05/01 01:11:53;;;;;;;1.90;1.80;;;24.00;59.70;;;;;;5026334;28;20486;-73
2023/05/01 01:14:27;;;;;;;2.60;2.40;;;24.00;59.70;;;;;;5013029;28;20479;-73
2023/05/01 01:17:04;;;;;;;2.37;2.17;;;24.00;59.70;;;;;;5030686;28;20504;-73
2023/05/01 01:20:00;;;;;;;2.33;2.13;;;24.00;59.70;;;;;;5031399;28;20484;-73
2023/05/01 01:22:29;;;;;;;2.33;2.13;;;24.00;59.70;;;;;;5030662;28;20445;-73
2023/05/01 01:25:33;;;;;;;2.87;1.90;;;23.90;59.70;;;;;;5032475;28;20473;-73
2023/05/01 01:28:17;;;;;;;2.83;2.63;;;23.90;59.70;;;;;;5013394;28;20946;-72
2023/05/01 01:31:14;;;;;;;2.30;2.20;;;23.90;59.70;;;;;;5024924;28;20470;-72
2023/05/01 01:33:50;;;;;;;2.40;2.20;;;23.90;59.70;;;;;;5025955;28;20974;-72
2023/05/01 01:36:21;;;;;;;2.20;2.03;;;23.90;59.70;;;;;;5030690;28;20440;-72
2023/05/01 01:38:58;;;;;;;2.00;1.90;;;23.90;59.70;;;;;;5013954;28;20584;-73
2023/05/01 01:41:33;;;;;;;2.00;1.90;;;23.90;59.70;;;;;;5031586;28;20450;-73
2023/05/01 01:44:05;;;;;;;2.30;2.10;;;23.90;59.70;;;;;;5014405;28;20884;-73
2023/05/01 01:46:37;;;;;;;2.10;2.00;;;23.90;59.70;;;;;;5013682;28;20549;-74
2023/05/01 01:49:15;;;;;;;2.17;2.03;;;23.90;59.70;;;;;;5014634;28;20816;-74
2023/05/01 01:51:48;;;;;;;2.70;2.50;;;23.90;59.70;;;;;;5030486;28;20442;-73
2023/05/01 01:54:22;;;;;;;2.27;2.10;;;23.90;59.70;;;;;;5012412;28;20509;-73
2023/05/01 01:56:51;;;;;;;2.43;2.33;;;23.90;59.70;;;;;;5012911;28;20855;-73
2023/05/01 01:59:23;;;;;;;2.97;2.67;;;23.90;59.70;;;;;;5013563;28;20551;-73
2023/05/01 02:01:53;;;;;;;2.40;2.20;;;23.90;59.70;;;;;;5013641;28;20449;-73
2023/05/01 02:04:24;;;;;;;2.57;2.37;;;23.90;59.70;;;;;;5030974;28;20456;-73
2023/05/01 02:06:53;;;;;;;2.40;2.20;;;23.90;59.70;;;;;;5030408;28;20428;-73
2023/05/01 02:09:25;;;;;;;2.00;1.90;;;23.90;59.70;;;;;;5014079;28;20460;-73
2023/05/01 02:11:55;;;;;;;2.23;2.03;;;23.90;59.70;;;;;;5013851;28;20512;-73
2023/05/01 02:14:26;;;;;;;2.27;2.10;;;23.90;59.70;;;;;;5011829;28;20524;-73
2023/05/01 02:16:56;;;;;;;2.57;2.37;;;23.90;59.70;;;;;;5013041;28;21023;-73
2023/05/01 02:19:26;;;;;;;2.90;2.70;;;23.90;59.70;;;;;;5031732;28;20486;-73
2023/05/01 02:21:58;;;;;;;2.37;2.27;;;23.90;59.80;;;;;;5012640;28;20454;-73
2023/05/01 02:24:29;;;;;;;1.93;1.83;;;23.90;59.70;;;;;;5031015;28;20483;-73
2023/05/01 02:27:00;;;;;;;2.07;1.97;;;23.90;59.80;;;;;;5031202;28;20472;-73
2023/05/01 02:29:29;;;;;;;2.30;2.20;;;23.90;59.80;;;;;;5030748;28;20491;-73
2023/05/01 02:31:57;;;;;;;2.20;2.10;;;23.90;59.80;;;;;;5012885;28;20510;-73
2023/05/01 02:34:27;;;;;;;1.90;1.80;;;23.80;59.80;;;;;;5013141;28;21319;-72
2023/05/01 02:36:57;;;;;;;2.43;2.23;;;23.80;59.80;;;;;;5012669;28;20461;-72
2023/05/01 02:39:26;;;;;;;2.37;2.17;;;23.80;59.80;;;;;;5030610;28;20492;-72
2023/05/01 02:41:57;;;;;;;2.07;1.97;;;23.80;59.80;;;;;;5013583;28;20465;-73
2023/05/01 02:44:27;;;;;;;2.03;1.93;;;23.80;59.80;;;;;;5013203;28;20540;-73
2023/05/01 02:46:57;;;;;;;2.37;2.20;;;23.80;59.80;;;;;;5027173;28;20873;-73
2023/05/01 02:49:27;;;;;;;2.10;2.00;;;23.80;59.80;;;;;;5055593;28;20821;-73
2023/05/01 02:51:56;;;;;;;2.17;2.07;;;23.80;59.80;;;;;;5011193;28;20656;-73
2023/05/01 02:54:25;;;;;;;2.10;2.00;;;23.80;59.80;;;;;;5016732;28;20456;-73
2023/05/01 02:56:53;;;;;;;1.93;1.83;;;23.80;59.80;;;;;;5035052;28;20476;-73
2023/05/01 02:59:21;;;;;;;2.50;2.30;;;23.80;59.80;;;;;;5017095;28;20484;-73
2023/05/01 03:01:50;;;;;;;1.90;1.80;;;23.80;59.80;;;;;;5020112;28;20444;-73
2023/05/01 03:04:18;;;;;;;2.20;2.10;;;23.80;59.80;;;;;;5032216;28;20974;-73
2023/05/01 03:06:48;;;;;;;1.90;1.80;;;23.80;59.80;;;;;;5033186;28;20484;-72
2023/05/01 03:09:16;;;;;;;1.87;1.77;;;23.80;59.80;;;;;;5035201;28;20987;-73
2023/05/01 03:11:44;;;;;;;2.27;1.97;;;23.80;59.80;;;;;;5021296;28;20494;-72
2023/05/01 03:14:13;;;;;;;2.00;1.90;;;23.80;59.80;;;;;;5016176;28;20823;-72
2023/05/01 03:16:41;;;;;;;1.90;1.80;;;23.80;59.80;;;;;;5034087;28;20519;-71
2023/05/01 03:19:09;;;;;;;2.43;2.33;;;23.80;59.80;;;;;;5031487;28;20570;-73
2023/05/01 03:21:38;;;;;;;2.40;2.23;;;23.80;59.80;;;;;;5015018;28;20824;-72
2023/05/01 03:24:08;;;;;;;2.00;1.80;;;23.80;59.80;;;;;;5031112;28;20874;-72
2023/05/01 03:26:36;;;;;;;2.37;2.17;;;23.80;59.80;;;;;;5033044;28;21027;-73
2023/05/01 03:29:04;;;;;;;2.17;2.07;;;23.80;59.80;;;;;;5015227;28;20551;-73
2023/05/01 03:31:33;;;;;;;2.17;2.07;;;23.80;59.80;;;;;;5016233;28;20464;-73
2023/05/01 03:34:01;;;;;;;2.57;2.37;;;23.80;59.80;;;;;;5010408;28;21393;-73
2023/05/01 03:36:32;;;;;;;2.13;2.03;;;23.80;59.80;;;;;;5014026;28;20465;-73
2023/05/01 03:39:00;;;;;;;1.97;1.87;;;23.80;59.80;;;;;;5016561;28;20484;-73
2023/05/01 03:41:56;;;;;;;2.10;2.00;;;23.80;59.80;;;;;;5031025;28;20481;-73
2023/05/01 03:44:26;;;;;;;1.80;1.70;;;23.70;59.90;;;;;;5016271;28;20543;-72
2023/05/01 03:46:55;;;;;;;2.10;1.90;;;23.70;59.90;;;;;;5044971;28;20448;-72
2023/05/01 03:49:27;;;;;;;2.20;2.00;;;23.70;59.90;;;;;;5024703;28;20466;-72
2023/05/01 03:51:55;;;;;;;2.03;1.87;;;23.70;59.90;;;;;;5014017;28;20495;-71
2023/05/01 03:54:24;;;;;;;2.30;2.10;;;23.70;59.90;;;;;;5012448;28;20921;-72
2023/05/01 03:57:00;;;;;;;2.40;2.30;;;23.70;59.90;;;;;;5014534;28;20460;-71
2023/05/01 03:59:28;;;;;;;2.13;2.03;;;23.70;59.90;;;;;;5015574;28;20464;-72
2023/05/01 04:01:56;;;;;;;1.90;1.80;;;23.70;59.90;;;;;;5028785;28;20541;-73
2023/05/01 04:04:28;;;;;;;1.80;1.70;;;23.70;59.90;;;;;;5014605;28;20510;-73
2023/05/01 04:06:58;;;;;;;2.03;1.93;;;23.70;59.90;;;;;;5013220;28;20467;-73
2023/05/01 04:09:28;;;;;;;1.53;1.43;;;23.70;59.90;;;;;;5033798;28;20429;-72
2023/05/01 04:11:57;;;;;;;2.10;1.90;;;23.70;59.90;;;;;;5015088;28;20472;-72
2023/05/01 04:14:27;;;;;;;1.83;1.73;;;23.70;59.90;;;;;;5032660;28;20563;-72
2023/05/01 04:16:56;;;;;;;2.30;2.10;;;23.70;59.90;;;;;;5014777;28;20526;-73
2023/05/01 04:19:24;;;;;;;2.00;1.90;;;23.70;59.90;;;;;;5015181;28;20613;-73
2023/05/01 04:21:57;;;;;;;1.97;1.87;;;23.70;59.90;;;;;;5013314;28;20488;-70
2023/05/01 04:24:26;;;;;;;1.67;1.57;;;23.80;59.90;;;;;;5015136;28;20540;-70
2023/05/01 04:26:54;;;;;;;2.23;2.03;;;23.80;59.90;;;;;;5025758;28;20552;-71
2023/05/01 04:29:22;;;;;;;1.97;1.87;;;23.80;59.80;;;;;;5015621;28;20929;-71
2023/05/01 04:31:53;;;;;;;1.70;1.60;;;23.80;59.80;;;;;;5009799;28;20549;-70
2023/05/01 04:34:21;;;;;;;2.00;1.90;;;23.80;59.80;;;;;;5007244;28;20811;-70
2023/05/01 04:36:50;;;;;;;1.47;1.37;;;23.80;59.70;;;;;;5009863;28;20452;-70
2023/05/01 04:39:18;;;;;;;2.07;1.60;;;23.80;59.80;;;;;;5011359;28;20487;-70
2023/05/01 04:41:47;;;;;;;1.60;1.50;;;23.80;59.70;;;;;;5013183;28;20517;-70
2023/05/01 04:44:15;;;;;;;1.70;1.60;;;23.80;59.70;;;;;;5011229;28;20456;-70
2023/05/01 04:46:45;;;;;;;1.93;1.83;;;23.80;59.70;;;;;;5013838;28;20472;-70
2023/05/01 04:49:15;;;;;;;1.70;1.60;;;23.80;59.70;;;;;;5028832;28;20462;-70
2023/05/01 04:51:43;;;;;;;1.90;1.80;;;23.80;59.70;;;;;;5030709;28;20470;-70
2023/05/01 04:54:14;;;;;;;2.13;2.03;;;23.80;59.80;;;;;;5011966;28;20527;-70
2023/05/01 04:56:42;;;;;;;1.70;1.60;;;23.80;59.80;;;;;;5002966;28;21012;-70
2023/05/01 04:59:11;;;;;;;1.53;1.43;;;23.80;59.80;;;;;;5026307;28;20478;-71
2023/05/01 05:01:39;;;;;;;1.80;1.70;;;23.80;59.80;;;;;;5024303;28;20478;-70
2023/05/01 05:04:07;;;;;;;2.37;2.17;;;23.80;59.80;;;;;;5011739;28;20495;-71
2023/05/01 05:06:37;;;;;;;1.80;1.70;;;23.80;59.80;;;;;;5014503;28;20469;-71
2023/05/01 05:09:09;;;;;;;1.80;1.70;;;23.80;59.80;;;;;;5008263;28;20957;-70
2023/05/01 05:11:38;;;;;;;2.10;2.00;;;23.80;59.80;;;;;;5029201;28;20462;-70
2023/05/01 05:14:11;;;;;;;1.77;1.67;;;23.70;59.80;;;;;;5012345;28;20517;-70
2023/05/01 05:16:39;;;;;;;2.17;2.07;;;23.70;59.80;;;;;;5027643;28;20459;-71
2023/05/01 05:19:09;;;;;;;1.83;1.73;;;23.70;59.80;;;;;;5023602;28;20461;-71
2023/05/01 05:21:45;;;;;;;2.00;1.90;;;23.70;59.80;;;;;;5011023;28;20472;-71
2023/05/01 05:24:14;;;;;;;1.90;1.80;;;23.70;59.80;;;;;;5012985;28;20452;-70
2023/05/01 05:26:43;;;;;;;1.70;1.60;;;23.70;59.80;;;;;;5027707;28;20465;-70
2023/05/01 05:29:11;;;;;;;2.07;1.97;;;23.70;59.80;;;;;;5007597;28;20461;-71
2023/05/01 05:31:39;;;;;;;1.67;1.57;;;23.70;59.80;;;;;;5006370;28;20966;-70
2023/05/01 05:34:07;;;;;;;1.50;1.40;;;23.70;59.80;;;;;;5026452;28;20497;-71
2023/05/01 05:36:36;;;;;;;2.00;1.90;;;23.70;59.80;;;;;;5024463;28;20492;-71
2023/05/01 05:39:06;;;;;;;2.00;1.90;;;23.70;59.80;;;;;;5008073;28;20496;-71
2023/05/01 05:41:34;;;;;;;1.53;1.43;;;23.70;59.80;;;;;;5006874;28;20523;-71
2023/05/01 05:44:03;;;;;;;2.17;1.60;;;23.70;59.80;;;;;;5009028;28;20509;-70
2023/05/01 05:46:31;;;;;;;2.10;2.00;;;23.70;59.80;;;;;;5008755;28;20508;-70
2023/05/01 05:49:00;;;;;;;1.90;1.80;;;23.70;59.80;;;;;;5035724;28;20519;-70
2023/05/01 05:51:30;;;;;;;1.90;1.80;;;23.70;59.80;;;;;;5006159;28;20465;-70
2023/05/01 05:53:58;;;;;;;1.70;1.60;;;23.70;59.80;;;;;;5006119;28;20464;-70
2023/05/01 05:56:28;;;;;;;1.23;1.23;;;23.70;59.80;;;;;;5040725;28;20545;-70
2023/05/01 05:58:57;;;;;;;2.30;2.20;;;23.70;59.80;;;;;;5026635;28;20969;-70
2023/05/01 06:01:25;;;;;;;1.63;1.53;;;23.70;59.80;;;;;;5009235;28;20885;-70
2023/05/01 06:03:53;;;;;;;1.80;1.70;;;23.70;59.80;;;;;;5023909;28;20491;-70
2023/05/01 06:06:23;;;;;;;2.20;2.00;;;23.70;59.80;;;;;;5003578;28;20492;-70
2023/05/01 06:08:51;;;;;;;1.83;1.73;;;23.70;59.80;;;;;;5022767;28;20814;-70
2023/05/01 06:11:21;;;;;;;1.73;1.63;;;23.70;59.80;;;;;;5007768;28;20469;-70
2023/05/01 06:13:50;;;;;;;1.60;1.50;;;23.70;59.80;;;;;;5009623;28;20450;-70
2023/05/01 06:16:19;;;;;;;1.77;1.67;;;23.70;59.80;;;;;;5026219;28;20456;-71
2023/05/01 06:18:47;;;;;;;1.80;1.70;;;23.70;59.80;;;;;;5009955;28;20518;-71
2023/05/01 06:21:15;;;;;;;1.80;1.40;;;23.70;59.80;;;;;;5025909;28;20479;-71
2023/05/01 06:23:44;;;;;;;1.50;1.40;;;23.70;59.80;;;;;;5028233;28;20518;-71
2023/05/01 06:26:28;;;;;;;1.67;1.57;;;23.70;59.80;;;;;;5009551;28;20466;-71
2023/05/01 06:28:58;;;;;;;2.03;1.93;;;23.70;59.70;;;;;;5011150;28;20465;-71
2023/05/01 06:31:29;;;;;;;1.77;1.67;;;23.80;59.70;;;;;;5003309;28;20756;-71
2023/05/01 06:33:57;;;;;;;1.67;1.60;;;23.80;59.70;;;;;;5010339;28;20465;-72
2023/05/01 06:36:30;;;;;;;1.97;1.87;;;23.80;59.70;;;;;;5010027;28;20467;-71
2023/05/01 06:38:58;;;;;;;1.70;1.60;;;23.80;59.70;;;;;;5009954;28;20521;-70
2023/05/01 06:41:26;;;;;;;1.60;1.50;;;23.80;59.60;;;;;;5005480;28;20885;-70
2023/05/01 06:43:55;;;;;;;1.97;1.87;;;23.80;59.60;;;;;;5010223;28;20868;-70
2023/05/01 06:46:24;;;;;;;1.97;1.87;;;23.80;59.60;;;;;;5027456;28;20458;-70
2023/05/01 06:48:52;;;;;;;1.50;1.40;;;23.80;59.60;;;;;;5027438;28;20548;-71
2023/05/01 06:51:20;;;;;;;1.47;1.37;;;23.80;59.60;;;;;;5010714;28;20498;-71
2023/05/01 06:53:49;;;;;;;1.67;1.57;;;23.80;59.60;;;;;;5028655;28;20461;-71
2023/05/01 06:56:17;;;;;;;1.50;1.40;;;23.80;59.60;;;;;;5009111;28;20881;-71
2023/05/01 06:58:45;;;;;;;1.33;1.33;;;23.80;59.60;;;;;;5002696;28;20883;-70
2023/05/01 07:01:13;;;;;;;1.83;1.40;;;23.80;59.50;;;;;;5017734;28;20516;-71
2023/05/01 07:03:43;;;;;;;1.83;1.73;;;23.80;59.50;;;;;;5028422;28;20507;-71
2023/05/01 07:06:11;;;;;;;1.83;1.73;;;23.80;59.50;;;;;;5027056;28;21012;-71
2023/05/01 07:08:40;;;;;;;1.60;1.50;;;23.80;59.50;;;;;;5025869;28;20456;-71
2023/05/01 07:11:08;;;;;;;1.43;1.33;;;23.80;59.50;;;;;;5024914;28;20494;-71
2023/05/01 07:13:36;;;;;;;1.80;1.70;;;23.80;59.50;;;;;;5030402;28;20556;-71
2023/05/01 07:16:05;;;;;;;1.67;1.57;;;23.80;59.50;;;;;;5030214;28;20544;-71
2023/05/01 07:18:34;;;;;;;1.47;1.47;;;23.80;59.50;;;;;;5030479;28;20473;-71
2023/05/01 07:21:04;;;;;;;1.60;1.50;;;23.80;59.50;;;;;;5029765;28;20945;-70
2023/05/01 07:23:32;;;;;;;1.77;1.67;;;23.80;59.50;;;;;;5026018;28;20946;-71
2023/05/01 07:26:00;;;;;;;2.07;1.97;;;23.80;59.40;;;;;;5023718;28;20507;-72
2023/05/01 07:28:29;;;;;;;1.97;1.83;;;23.80;59.40;;;;;;5023590;28;20573;-73
2023/05/01 07:30:57;;;;;;;1.50;1.40;;;23.80;59.40;;;;;;5029023;28;20477;-71
2023/05/01 07:33:25;;;;;;;2.10;2.00;;;23.80;59.40;;;;;;5030232;28;20497;-71
2023/05/01 07:35:54;;;;;;;1.60;1.50;;;23.90;59.40;;;;;;5026087;28;20463;-71
2023/05/01 07:38:23;;;;;;;1.40;1.40;;;23.90;59.40;;;;;;5032533;28;20515;-71
2023/05/01 07:40:53;;;;;;;1.80;1.70;;;23.90;59.40;;;;;;5033432;28;20543;-71
2023/05/01 07:43:21;;;;;;;1.70;1.60;;;23.90;59.30;;;;;;5033172;28;20595;-71
2023/05/01 07:45:57;;;;;;;1.53;1.37;;;23.90;59.40;;;;;;5026580;28;20507;-72
2023/05/01 07:48:26;;;;;;;1.43;1.37;;;23.90;59.40;;;;;;5032583;28;20539;-71
2023/05/01 07:50:55;;;;;;;1.63;1.53;;;23.80;59.40;;;;;;5033707;28;20453;-71
2023/05/01 07:53:25;;;;;;;1.40;1.30;;;23.90;59.40;;;;;;5023762;28;20463;-72
2023/05/01 07:55:53;;;;;;;1.80;1.70;;;23.80;59.40;;;;;;5030028;28;20446;-71
2023/05/01 07:58:21;;;;;;;1.80;1.70;;;23.80;59.40;;;;;;5032610;28;20471;-72
2023/05/01 08:00:49;;;;;;;1.47;1.40;;;23.80;59.40;;;;;;5033115;28;20545;-72
2023/05/01 08:03:17;;;;;;;1.80;1.70;;;23.90;59.40;;;;;;5014526;28;20476;-71
2023/05/01 08:05:46;;;;;;;1.67;1.57;;;23.80;59.40;;;;;;5012899;28;20527;-71
2023/05/01 08:08:19;;;;;;;1.63;1.53;;;23.90;59.40;;;;;;5024605;28;20520;-71
2023/05/01 08:10:49;;;;;;;1.63;1.53;;;23.90;59.40;;;;;;5001958;28;20568;-71
2023/05/01 08:13:17;;;;;;;1.60;1.50;;;23.90;59.40;;;;;;5025800;28;20469;-72
2023/05/01 08:15:46;;;;;;;1.60;1.50;;;23.90;59.40;;;;;;5032452;28;20534;-72
2023/05/01 08:18:19;;;;;;;2.03;1.93;;;23.90;59.30;;;;;;5027440;28;20537;-72
2023/05/01 08:20:47;;;;;;;1.57;1.53;;;23.90;59.30;;;;;;5030217;28;20480;-72
2023/05/01 08:23:17;;;;;;;1.50;1.40;;;23.90;59.30;;;;;;5011424;28;20549;-73
2023/05/01 08:25:49;;;;;;;1.40;1.30;;;23.90;59.30;;;;;;5030030;28;20465;-72
2023/05/01 08:28:20;;;;;;;1.60;1.50;;;23.90;59.30;;;;;;5032508;28;20458;-71
2023/05/01 08:30:49;;;;;;;2.00;1.77;;;24.00;59.30;;;;;;5030905;28;20475;-72
2023/05/01 08:33:17;;;;;;;1.57;1.47;;;24.00;59.20;;;;;;5024031;28;20459;-70
2023/05/01 08:35:45;;;;;;;1.80;1.70;;;24.00;59.20;;;;;;5031462;28;20459;-71
2023/05/01 08:38:14;;;;;;;1.70;1.60;;;24.00;59.20;;;;;;5031908;28;20574;-71
2023/05/01 08:40:52;;;;;;;1.60;1.50;;;24.00;59.20;;;;;;5020827;28;20513;-71
2023/05/01 08:43:23;;;;;;;1.90;1.80;;;24.00;59.20;;;;;;5025819;28;20568;-71
2023/05/01 08:45:55;;;;;;;1.33;1.33;;;24.00;59.20;;;;;;5029911;28;20469;-71
2023/05/01 08:48:24;;;;;;;1.73;1.63;;;24.00;59.20;;;;;;5015117;28;20543;-71
2023/05/01 08:50:55;;;;;;;1.70;1.60;;;24.00;59.20;;;;;;5027333;28;20445;-71
2023/05/01 08:53:25;;;;;;;1.57;1.47;;;24.00;59.20;;;;;;5028754;28;20953;-71
2023/05/01 08:55:55;;;;;;;1.50;1.40;;;24.00;59.20;;;;;;5030873;28;20464;-71
2023/05/01 08:58:26;;;;;;;1.70;1.60;;;24.00;59.10;;;;;;5031167;28;20459;-71
2023/05/01 09:00:57;;;;;;;1.60;1.50;;;24.00;59.10;;;;;;5025429;28;20487;-71
2023/05/01 09:03:26;;;;;;;1.30;1.30;;;24.00;59.10;;;;;;5027795;28;20475;-71
2023/05/01 09:05:56;;;;;;;1.00;1.00;;;24.00;59.10;;;;;;5030680;28;20987;-71
2023/05/01 09:08:24;;;;;;;1.53;1.43;;;24.00;59.10;;;;;;5012300;28;20454;-71
2023/05/01 09:10:54;;;;;;;1.70;1.60;;;24.00;58.90;;;;;;5019776;28;20462;-71
2023/05/01 09:13:25;;;;;;;1.57;1.47;;;24.00;58.90;;;;;;5031230;28;20486;-71
2023/05/01 09:15:53;;;;;;;1.67;1.57;;;24.00;58.90;;;;;;5028585;28;20457;-71
2023/05/01 09:18:22;;;;;;;1.67;1.57;;;24.00;58.90;;;;;;5023210;28;20467;-72
2023/05/01 09:20:51;;;;;;;1.10;1.10;;;24.10;58.90;;;;;;5026639;28;20507;-71
2023/05/01 09:23:19;;;;;;;1.17;1.17;;;24.10;58.90;;;;;;5030329;28;20570;-71
2023/05/01 09:25:47;;;;;;;1.77;1.67;;;24.10;58.80;;;;;;5008864;28;20908;-71
2023/05/01 09:28:19;;;;;;;1.77;1.67;;;24.10;58.80;;;;;;5024088;28;20460;-71
2023/05/01 09:30:48;;;;;;;1.50;1.40;;;24.10;58.80;;;;;;5024187;28;20462;-71
2023/05/01 09:33:16;;;;;;;1.50;1.40;;;24.10;58.80;;;;;;5021582;28;20496;-71
2023/05/01 09:35:52;;;;;;;1.27;1.27;;;24.10;58.80;;;;;;5027982;28;20522;-71
2023/05/01 09:38:22;;;;;;;1.50;1.40;;;24.10;58.80;;;;;;5031802;28;20592;-71
2023/05/01 09:40:50;;;;;;;1.60;1.50;;;24.10;58.80;;;;;;5032218;28;20457;-71
2023/05/01 09:43:26;;;;;;;1.60;1.50;;;24.10;58.80;;;;;;5025236;28;20467;-72
2023/05/01 09:46:04;;;;;;;1.30;1.20;;;24.10;58.80;;;;;;5024139;28;20492;-71
2023/05/01 09:48:32;;;;;;;1.20;1.20;;;24.10;58.80;;;;;;5025158;28;20455;-72
2023/05/01 09:51:20;;;;;;;1.53;1.30;;;24.10;58.80;;;;;;5024739;28;20467;-71
2023/05/01 09:53:50;;;;;;;1.23;1.23;;;24.10;58.80;;;;;;5025134;28;20465;-71
2023/05/01 09:56:20;;;;;;;1.70;1.60;;;24.10;58.70;;;;;;5025224;28;20491;-71
2023/05/01 09:58:49;;;;;;;1.60;1.50;;;24.10;58.70;;;;;;5026537;28;20544;-71
2023/05/01 10:01:36;;;;;;;1.20;1.10;;;24.10;58.70;;;;;;5023661;28;20566;-71
2023/05/01 10:04:05;;;;;;;1.30;1.30;;;24.10;58.70;;;;;;5015511;28;20537;-71
2023/05/01 10:06:35;;;;;;;1.47;1.37;;;24.10;58.70;;;;;;5023988;28;20930;-71
2023/05/01 10:09:06;;;;;;;1.37;1.27;;;24.10;58.70;;;;;;5022983;28;20549;-71
2023/05/01 10:11:48;;;;;;;1.73;1.63;;;24.20;58.70;;;;;;4999136;28;20975;-71
2023/05/01 10:14:16;;;;;;;1.70;1.60;;;24.10;58.70;;;;;;5023662;28;20446;-70
2023/05/01 10:16:46;;;;;;;1.43;1.33;;;24.20;58.60;;;;;;5025645;28;20504;-70
2023/05/01 10:19:16;;;;;;;1.50;1.40;;;24.20;58.60;;;;;;5029755;28;20454;-71
2023/05/01 10:21:45;;;;;;;1.50;1.40;;;24.20;58.60;;;;;;5025542;28;20469;-72
2023/05/01 10:24:15;;;;;;;1.90;1.80;;;24.20;58.60;;;;;;5028350;28;20928;-72
2023/05/01 10:26:48;;;;;;;1.43;1.33;;;24.20;58.60;;;;;;5025084;28;20535;-72
2023/05/01 10:29:18;;;;;;;1.87;1.77;;;24.30;58.50;;;;;;5025603;28;20460;-75
2023/05/01 10:31:48;;;;;;;3.17;2.37;;;24.30;58.60;;;;;;5026778;28;20869;-73
2023/05/01 10:34:20;;;;;;;4.37;3.23;;;24.30;58.80;;;;;;5034029;28;20497;-73
2023/05/01 10:36:54;;;;;;;4.80;4.00;;;24.30;58.90;;;;;;5028298;28;20462;-73
2023/05/01 10:39:33;;;;;;;4.93;3.40;;;24.40;58.80;;;;;;5033834;28;20553;-72
2023/05/01 10:42:09;;;;;;;4.80;3.67;;;24.40;58.70;;;;;;5027120;28;20450;-73
2023/05/01 10:44:38;;;;;;;4.93;4.03;;;24.40;58.60;;;;;;5024759;28;20567;-72
2023/05/01 10:47:46;;;;;;;3.53;3.20;;;24.40;58.60;;;;;;5026216;28;20502;-70
2023/05/01 10:50:16;;;;;;;7.60;3.57;;;24.40;58.50;;;;;;5005926;28;20478;-71
2023/05/01 10:53:16;;;;;;;3.60;3.30;;;24.40;58.50;;;;;;5028571;28;20954;-72
2023/05/01 10:55:47;;;;;;;3.60;3.30;;;24.40;58.50;;;;;;5034642;28;20455;-72
2023/05/01 10:59:09;;;;;;;4.33;3.20;;;24.40;58.40;;;;;;5029672;28;20461;-72
2023/05/01 11:01:39;;;;;;;5.50;3.37;;;24.40;58.40;;;;;;5026342;28;20463;-71
2023/05/01 11:04:47;;;;;;;3.77;2.60;;;24.40;58.40;;;;;;5028036;28;20476;-71
2023/05/01 11:07:17;;;;;;;4.33;2.70;;;24.40;58.40;;;;;;5027796;28;20454;-71
2023/05/01 11:09:48;;;;;;;3.67;3.33;;;24.40;58.40;;;;;;5028696;28;20856;-71
2023/05/01 11:12:39;;;;;;;6.10;2.93;;;24.50;58.40;;;;;;5031768;28;20475;-71
2023/05/01 11:15:08;;;;;;;4.07;3.67;;;24.50;58.30;;;;;;5021323;28;20460;-72
2023/05/01 11:17:48;;;;;;;4.10;3.10;;;24.50;58.30;;;;;;5021966;28;20960;-71
2023/05/01 11:20:51;;;;;;;3.83;3.37;;;24.60;58.30;;;;;;5021912;28;20538;-71
2023/05/01 11:23:21;;;;;;;3.90;2.60;;;24.60;58.10;;;;;;4970342;28;20447;-71
2023/05/01 11:25:52;;;;;;;4.87;2.87;;;24.60;58.10;;;;;;4950590;28;20488;-71
2023/05/01 11:28:24;;;;;;;3.40;3.10;;;24.70;58.00;;;;;;4985058;28;20894;-73
2023/05/01 11:30:53;;;;;;;3.23;2.47;;;24.70;57.90;;;;;;5022354;28;20450;-71
2023/05/01 11:33:24;;;;;;;3.70;3.00;;;24.70;57.80;;;;;;5007074;28;20519;-71
2023/05/01 11:36:01;;;;;;;2.87;2.43;;;24.80;57.80;;;;;;5032471;28;20541;-71
2023/05/01 11:38:29;;;;;;;3.17;2.87;;;24.80;57.70;;;;;;5031699;28;20489;-71
2023/05/01 11:41:03;;;;;;;3.10;2.80;;;24.90;57.60;;;;;;5033696;28;20473;-71
2023/05/01 11:43:31;;;;;;;2.83;2.57;;;24.90;57.50;;;;;;5034353;28;20540;-72
2023/05/01 11:46:02;;;;;;;4.90;3.43;;;25.00;57.50;;;;;;5037489;28;20855;-71
2023/05/01 11:48:31;;;;;;;3.47;2.50;;;25.10;57.30;;;;;;5037045;28;20452;-71
2023/05/01 11:51:01;;;;;;;3.20;2.90;;;25.20;57.00;;;;;;5030053;28;20452;-71
2023/05/01 11:53:30;;;;;;;3.10;2.50;;;25.20;57.00;;;;;;5029862;28;20881;-71
2023/05/01 11:55:59;;;;;;;4.50;2.93;;;25.30;56.90;;;;;;5024142;28;20495;-71
2023/05/01 11:58:32;;;;;;;2.60;2.40;;;25.40;56.70;;;;;;5014156;28;20439;-71
2023/05/01 12:01:00;;;;;;;3.20;2.70;;;25.40;56.60;;;;;;5015155;28;20451;-71
2023/05/01 12:03:40;;;;;;;3.90;2.87;;;25.50;56.50;;;;;;5032950;28;20463;-71
2023/05/01 12:06:11;;;;;;;4.00;3.30;;;25.50;56.20;;;;;;5015839;28;20822;-72
2023/05/01 12:08:45;;;;;;;4.53;2.97;;;25.50;56.20;;;;;;5021407;28;20490;-72
2023/05/01 12:11:14;;;;;;;3.27;3.07;;;25.40;56.30;;;;;;5033742;28;20792;-72
2023/05/01 12:13:42;;;;;;;3.07;2.77;;;25.30;56.50;;;;;;5035567;28;20974;-72
2023/05/01 12:16:11;;;;;;;3.07;2.77;;;25.20;56.60;;;;;;5032793;28;20444;-72
2023/05/01 12:18:39;;;;;;;3.80;1.97;;;25.20;56.70;;;;;;5022181;28;21016;-72
2023/05/01 12:21:17;;;;;;;3.53;2.57;;;25.10;56.80;;;;;;5021129;28;20894;-72
2023/05/01 12:23:46;;;;;;;2.90;2.57;;;25.00;57.00;;;;;;5024570;28;20540;-72
2023/05/01 12:26:18;;;;;;;2.93;2.60;;;25.00;57.10;;;;;;5003588;28;20457;-72
2023/05/01 12:28:56;;;;;;;3.53;2.73;;;25.00;57.20;;;;;;5028756;28;20483;-72
2023/05/01 12:31:26;;;;;;;2.50;2.30;;;24.90;57.30;;;;;;5026830;28;20464;-72
2023/05/01 12:33:56;;;;;;;2.83;2.63;;;24.90;57.30;;;;;;5025399;28;20495;-72
2023/05/01 12:36:27;;;;;;;4.30;2.97;;;24.90;57.40;;;;;;5021751;28;20546;-72
2023/05/01 12:38:57;;;;;;;4.30;2.70;;;24.90;57.40;;;;;;5026021;28;20489;-72
2023/05/01 12:41:39;;;;;;;2.70;2.50;;;24.90;57.50;;;;;;5028195;28;21016;-72
2023/05/01 12:44:19;;;;;;;3.43;3.13;;;24.80;57.50;;;;;;5031896;28;20459;-72
2023/05/01 12:46:55;;;;;;;4.40;2.70;;;24.80;57.80;;;;;;5027391;28;20461;-72
2023/05/01 12:49:24;;;;;;;2.60;2.40;;;24.80;57.80;;;;;;5027955;28;20532;-71
2023/05/01 12:51:55;;;;;;;3.37;3.07;;;24.80;57.80;;;;;;5030402;28;20450;-71
2023/05/01 12:54:27;;;;;;;2.30;2.10;;;24.80;57.80;;;;;;5027225;28;20491;-70
2023/05/01 12:57:06;;;;;;;4.70;3.20;;;24.80;57.70;;;;;;5029790;28;20447;-71
2023/05/01 12:59:36;;;;;;;2.67;2.47;;;24.70;57.80;;;;;;5028398;28;20470;-70
2023/05/01 13:02:06;;;;;;;3.43;2.50;;;24.70;57.80;;;;;;5026865;28;20557;-70
2023/05/01 13:04:34;;;;;;;2.40;2.20;;;24.70;57.80;;;;;;5012291;28;20916;-70
2023/05/01 13:07:11;;;;;;;5.30;2.43;;;24.60;57.90;;;;;;5028617;28;20478;-70
2023/05/01 13:09:39;;;;;;;2.77;2.43;;;24.60;58.10;;;;;;5031863;28;21002;-70